Eccles, United Kingdom
Current Conditions -  °F | °C
As of 6:50 PM on Sunday 23 Nov 2014 (Local Time) from EGCC Reporting Station
Clear Clear  
Wind Chill: 37°   Ceiling: Unl
Heat Index: 37°   Visibility: 6mi
Dew Point: 36°   Wind: 3mph
Humidity: 93%   Direction: 220°SW
Pressure: 30.09"   Gusts: NA
Location:  53.48°N, 2.38°W
Report Text: EGCC 231850Z 22003KT CAVOK 03/02 Q1019 NOSIG
Loading
Personal Weather Stations






























Interactive Weather Map New forecast layout! Learn more

10-Day Weather Forecast

Advertisements
Track Severe Weather on mobile